Overview Statistics Trail Chart Weather Telemetry Raw packets
 

This is the latest recevied weather packets stored in our database for station/object KN4AN. If no packets are shown the sender has not sent any weather packets the latest 10 day(s).

<< 84 85 86 87 88 89 90 >>
Time Temp. Humidity Pressure Rain* Wind** Luminosity Snow
1787936975 30.56° C 53% 1018 hPa 0 mm - 745 W/m² -
1787936673 30.56° C 55% 1018.1 hPa 0 mm - 726 W/m² -
1787936368 30° C 58% 1018.3 hPa 0 mm - 747 W/m² -
1787936063 30.56° C 53% 1018.3 hPa 0 mm - 746 W/m² -
1787935758 30.56° C 55% 1018.2 hPa 0 mm - 740 W/m² -
1787935454 30° C 57% 1018.3 hPa 0 mm - 732 W/m² -
1787935151 30° C 59% 1018.1 hPa 0 mm - 724 W/m² -
1787934846 29.44° C 58% 1018.1 hPa 0 mm - 734 W/m² -
1787934545 28.89° C 61% 1018.3 hPa 0 mm - 731 W/m² -
1787934240 28.89° C 61% 1018.4 hPa 0 mm - 723 W/m² -
1787933939 28.89° C 59% 1018.3 hPa 0 mm - 727 W/m² -
1787933639 28.89° C 60% 1018.3 hPa 0 mm - 723 W/m² -
1787933334 28.89° C 61% 1018.3 hPa 0 mm - 713 W/m² -
1787933034 28.89° C 61% 1018.4 hPa 0 mm - 714 W/m² -
1787932732 28.89° C 62% 1018.4 hPa 0 mm - 686 W/m² -
1787932426 28.89° C 62% 1018.5 hPa 0 mm - 704 W/m² -
1787932122 28.33° C 64% 1018.3 hPa 0 mm - 678 W/m² -
1787931821 28.33° C 62% 1018.3 hPa 0 mm - 680 W/m² -
1787931521 28.33° C 62% 1018.4 hPa 0 mm - 670 W/m² -
1787931220 28.33° C 66% 1018.4 hPa 0 mm - 673 W/m² -
1787930920 27.78° C 66% 1018.5 hPa 0 mm - 664 W/m² -
1787930619 27.22° C 67% 1018.4 hPa 0 mm - 619 W/m² -
1787930315 27.78° C 64% 1018.5 hPa 0 mm - 626 W/m² -
1787930010 27.22° C 69% 1018.2 hPa 0 mm - 637 W/m² -
1787929708 26.67° C 70% 1018.4 hPa 0 mm - 613 W/m² -

* Rain latest hour (hover to see other rain measurements)
** Current wind speed in m/s (hover to see current wind gust speed)